sensor_id;sensor_type;location;lat;lon;timestamp;P1;durP1;ratioP1;P2;durP2;ratioP2
57571;SDS011;44459;43.522;24.470;2022-12-07T00:01:12;0.00;;;0.00;;
57571;SDS011;44459;43.522;24.470;2022-12-07T00:03:40;0.15;;;0.15;;
57571;SDS011;44459;43.522;24.470;2022-12-07T00:06:07;2.72;;;2.08;;
57571;SDS011;44459;43.522;24.470;2022-12-07T00:08:34;1.90;;;1.80;;
57571;SDS011;44459;43.522;24.470;2022-12-07T00:13:38;0.17;;;0.17;;
57571;SDS011;44459;43.522;24.470;2022-12-07T00:16:06;0.10;;;0.10;;
57571;SDS011;44459;43.522;24.470;2022-12-07T00:18:33;0.70;;;0.70;;
57571;SDS011;44459;43.522;24.470;2022-12-07T00:21:10;0.05;;;0.05;;
57571;SDS011;44459;43.522;24.470;2022-12-07T00:23:39;0.75;;;0.75;;
57571;SDS011;44459;43.522;24.470;2022-12-07T00:28:35;0.17;;;0.17;;
57571;SDS011;44459;43.522;24.470;2022-12-07T00:31:06;0.10;;;0.10;;
57571;SDS011;44459;43.522;24.470;2022-12-07T00:33:34;1.65;;;1.65;;
57571;SDS011;44459;43.522;24.470;2022-12-07T00:36:01;0.00;;;0.00;;
57571;SDS011;44459;43.522;24.470;2022-12-07T00:38:29;0.20;;;0.20;;
57571;SDS011;44459;43.522;24.470;2022-12-07T00:40:59;0.50;;;0.50;;
57571;SDS011;44459;43.522;24.470;2022-12-07T00:43:26;1.05;;;1.05;;
57571;SDS011;44459;43.522;24.470;2022-12-07T00:45:53;0.28;;;0.28;;
57571;SDS011;44459;43.522;24.470;2022-12-07T00:48:19;0.50;;;0.50;;
57571;SDS011;44459;43.522;24.470;2022-12-07T00:50:45;0.10;;;0.10;;
57571;SDS011;44459;43.522;24.470;2022-12-07T00:53:10;0.20;;;0.20;;
57571;SDS011;44459;43.522;24.470;2022-12-07T00:55:36;1.45;;;1.17;;
57571;SDS011;44459;43.522;24.470;2022-12-07T00:58:01;0.28;;;0.17;;
57571;SDS011;44459;43.522;24.470;2022-12-07T01:00:27;0.10;;;0.10;;
57571;SDS011;44459;43.522;24.470;2022-12-07T01:02:53;0.38;;;0.38;;
57571;SDS011;44459;43.522;24.470;2022-12-07T01:05:19;3.40;;;2.10;;
57571;SDS011;44459;43.522;24.470;2022-12-07T01:07:44;0.30;;;0.30;;
57571;SDS011;44459;43.522;24.470;2022-12-07T01:10:11;1.60;;;1.50;;
57571;SDS011;44459;43.522;24.470;2022-12-07T01:12:36;0.32;;;0.32;;
57571;SDS011;44459;43.522;24.470;2022-12-07T01:15:02;2.85;;;2.75;;
57571;SDS011;44459;43.522;24.470;2022-12-07T01:17:27;0.15;;;0.15;;
57571;SDS011;44459;43.522;24.470;2022-12-07T01:19:53;3.20;;;1.92;;
57571;SDS011;44459;43.522;24.470;2022-12-07T01:22:19;0.63;;;0.63;;
57571;SDS011;44459;43.522;24.470;2022-12-07T01:24:44;0.10;;;0.10;;
57571;SDS011;44459;43.522;24.470;2022-12-07T01:27:11;0.00;;;0.00;;
57571;SDS011;44459;43.522;24.470;2022-12-07T01:29:37;0.00;;;0.00;;
57571;SDS011;44459;43.522;24.470;2022-12-07T01:32:03;5.47;;;2.08;;
57571;SDS011;44459;43.522;24.470;2022-12-07T01:34:29;0.10;;;0.10;;
57571;SDS011;44459;43.522;24.470;2022-12-07T01:36:54;0.00;;;0.00;;
57571;SDS011;44459;43.522;24.470;2022-12-07T01:39:19;0.40;;;0.40;;
57571;SDS011;44459;43.522;24.470;2022-12-07T01:41:45;0.10;;;0.10;;
57571;SDS011;44459;43.522;24.470;2022-12-07T01:44:12;0.30;;;0.30;;
57571;SDS011;44459;43.522;24.470;2022-12-07T01:46:43;0.68;;;0.68;;
57571;SDS011;44459;43.522;24.470;2022-12-07T01:49:26;0.10;;;0.10;;
57571;SDS011;44459;43.522;24.470;2022-12-07T01:51:58;0.10;;;0.10;;
57571;SDS011;44459;43.522;24.470;2022-12-07T01:54:31;1.83;;;1.75;;
57571;SDS011;44459;43.522;24.470;2022-12-07T01:56:58;0.30;;;0.30;;
57571;SDS011;44459;43.522;24.470;2022-12-07T01:59:24;0.10;;;0.10;;
57571;SDS011;44459;43.522;24.470;2022-12-07T02:01:51;0.38;;;0.38;;
57571;SDS011;44459;43.522;24.470;2022-12-07T02:04:19;0.10;;;0.10;;
57571;SDS011;44459;43.522;24.470;2022-12-07T02:06:46;0.52;;;0.52;;
57571;SDS011;44459;43.522;24.470;2022-12-07T02:09:12;0.00;;;0.00;;
57571;SDS011;44459;43.522;24.470;2022-12-07T02:11:38;0.38;;;0.38;;
57571;SDS011;44459;43.522;24.470;2022-12-07T02:14:04;0.22;;;0.22;;
57571;SDS011;44459;43.522;24.470;2022-12-07T02:16:33;0.10;;;0.10;;
57571;SDS011;44459;43.522;24.470;2022-12-07T02:27:08;1.45;;;1.25;;
57571;SDS011;44459;43.522;24.470;2022-12-07T02:32:21;0.10;;;0.10;;
57571;SDS011;44459;43.522;24.470;2022-12-07T02:37:53;2.15;;;2.10;;
57571;SDS011;44459;43.522;24.470;2022-12-07T02:40:40;0.00;;;0.00;;
57571;SDS011;44459;43.522;24.470;2022-12-07T02:43:23;0.00;;;0.00;;
57571;SDS011;44459;43.522;24.470;2022-12-07T02:45:54;0.00;;;0.00;;
57571;SDS011;44459;43.522;24.470;2022-12-07T02:48:23;0.00;;;0.00;;
57571;SDS011;44459;43.522;24.470;2022-12-07T02:50:51;0.00;;;0.00;;
57571;SDS011;44459;43.522;24.470;2022-12-07T02:53:37;1.13;;;1.13;;
57571;SDS011;44459;43.522;24.470;2022-12-07T02:56:05;0.40;;;0.40;;
57571;SDS011;44459;43.522;24.470;2022-12-07T03:02:02;0.08;;;0.08;;
57571;SDS011;44459;43.522;24.470;2022-12-07T03:04:16;0.25;;;0.25;;
57571;SDS011;44459;43.522;24.470;2022-12-07T03:06:56;0.10;;;0.10;;
57571;SDS011;44459;43.522;24.470;2022-12-07T03:09:35;0.65;;;0.65;;
57571;SDS011;44459;43.522;24.470;2022-12-07T03:12:12;0.00;;;0.00;;
57571;SDS011;44459;43.522;24.470;2022-12-07T03:14:49;0.10;;;0.10;;
57571;SDS011;44459;43.522;24.470;2022-12-07T03:17:22;0.10;;;0.10;;
57571;SDS011;44459;43.522;24.470;2022-12-07T03:19:52;0.68;;;0.68;;
57571;SDS011;44459;43.522;24.470;2022-12-07T03:22:22;0.00;;;0.00;;
57571;SDS011;44459;43.522;24.470;2022-12-07T03:24:52;0.10;;;0.10;;
57571;SDS011;44459;43.522;24.470;2022-12-07T03:27:25;0.10;;;0.10;;
57571;SDS011;44459;43.522;24.470;2022-12-07T03:30:13;0.20;;;0.20;;
57571;SDS011;44459;43.522;24.470;2022-12-07T03:33:05;0.00;;;0.00;;
57571;SDS011;44459;43.522;24.470;2022-12-07T03:38:20;0.10;;;0.10;;
57571;SDS011;44459;43.522;24.470;2022-12-07T03:43:23;0.10;;;0.10;;
57571;SDS011;44459;43.522;24.470;2022-12-07T03:48:37;0.00;;;0.00;;
57571;SDS011;44459;43.522;24.470;2022-12-07T03:54:10;0.43;;;0.43;;
57571;SDS011;44459;43.522;24.470;2022-12-07T03:56:56;1.65;;;0.90;;
57571;SDS011;44459;43.522;24.470;2022-12-07T03:59:23;0.10;;;0.10;;
57571;SDS011;44459;43.522;24.470;2022-12-07T04:01:54;0.10;;;0.10;;
57571;SDS011;44459;43.522;24.470;2022-12-07T04:04:23;0.10;;;0.10;;
57571;SDS011;44459;43.522;24.470;2022-12-07T04:06:50;0.75;;;0.75;;
57571;SDS011;44459;43.522;24.470;2022-12-07T04:09:16;0.80;;;0.80;;
57571;SDS011;44459;43.522;24.470;2022-12-07T04:11:42;0.10;;;0.10;;
57571;SDS011;44459;43.522;24.470;2022-12-07T04:14:08;0.10;;;0.10;;
57571;SDS011;44459;43.522;24.470;2022-12-07T04:16:47;0.70;;;0.70;;
57571;SDS011;44459;43.522;24.470;2022-12-07T04:19:23;0.35;;;0.35;;
57571;SDS011;44459;43.522;24.470;2022-12-07T04:21:50;0.10;;;0.10;;
57571;SDS011;44459;43.522;24.470;2022-12-07T04:24:15;0.00;;;0.00;;
57571;SDS011;44459;43.522;24.470;2022-12-07T04:26:41;1.42;;;1.40;;
57571;SDS011;44459;43.522;24.470;2022-12-07T04:29:09;0.17;;;0.17;;
57571;SDS011;44459;43.522;24.470;2022-12-07T04:31:35;0.10;;;0.10;;
57571;SDS011;44459;43.522;24.470;2022-12-07T04:34:01;0.00;;;0.00;;
57571;SDS011;44459;43.522;24.470;2022-12-07T04:36:27;0.10;;;0.10;;
57571;SDS011;44459;43.522;24.470;2022-12-07T04:38:53;0.10;;;0.10;;
57571;SDS011;44459;43.522;24.470;2022-12-07T04:41:20;0.10;;;0.10;;
57571;SDS011;44459;43.522;24.470;2022-12-07T04:43:55;0.10;;;0.10;;
57571;SDS011;44459;43.522;24.470;2022-12-07T04:46:23;0.10;;;0.10;;
57571;SDS011;44459;43.522;24.470;2022-12-07T04:48:50;0.10;;;0.10;;
57571;SDS011;44459;43.522;24.470;2022-12-07T04:51:18;0.10;;;0.10;;
57571;SDS011;44459;43.522;24.470;2022-12-07T04:53:46;0.10;;;0.10;;
57571;SDS011;44459;43.522;24.470;2022-12-07T04:56:11;2.17;;;2.08;;
57571;SDS011;44459;43.522;24.470;2022-12-07T04:58:38;0.00;;;0.00;;
57571;SDS011;44459;43.522;24.470;2022-12-07T05:01:04;0.00;;;0.00;;
57571;SDS011;44459;43.522;24.470;2022-12-07T05:03:29;0.10;;;0.10;;
57571;SDS011;44459;43.522;24.470;2022-12-07T05:05:54;0.00;;;0.00;;
57571;SDS011;44459;43.522;24.470;2022-12-07T05:08:20;0.38;;;0.38;;
57571;SDS011;44459;43.522;24.470;2022-12-07T05:10:45;0.10;;;0.10;;
57571;SDS011;44459;43.522;24.470;2022-12-07T05:13:11;0.10;;;0.10;;
57571;SDS011;44459;43.522;24.470;2022-12-07T05:15:36;0.10;;;0.10;;
57571;SDS011;44459;43.522;24.470;2022-12-07T05:18:02;0.10;;;0.10;;
57571;SDS011;44459;43.522;24.470;2022-12-07T05:20:28;0.10;;;0.10;;
57571;SDS011;44459;43.522;24.470;2022-12-07T05:22:53;0.10;;;0.10;;
57571;SDS011;44459;43.522;24.470;2022-12-07T05:25:19;0.00;;;0.00;;
57571;SDS011;44459;43.522;24.470;2022-12-07T05:27:44;0.10;;;0.10;;
57571;SDS011;44459;43.522;24.470;2022-12-07T05:30:10;0.10;;;0.10;;
57571;SDS011;44459;43.522;24.470;2022-12-07T05:32:36;4.35;;;3.92;;
57571;SDS011;44459;43.522;24.470;2022-12-07T05:35:01;0.10;;;0.10;;
57571;SDS011;44459;43.522;24.470;2022-12-07T05:37:26;0.10;;;0.10;;
57571;SDS011;44459;43.522;24.470;2022-12-07T05:39:52;2.25;;;2.20;;
57571;SDS011;44459;43.522;24.470;2022-12-07T05:42:17;0.10;;;0.10;;
57571;SDS011;44459;43.522;24.470;2022-12-07T05:44:44;0.55;;;0.55;;
57571;SDS011;44459;43.522;24.470;2022-12-07T05:47:11;0.00;;;0.00;;
57571;SDS011;44459;43.522;24.470;2022-12-07T05:49:38;1.38;;;1.38;;
57571;SDS011;44459;43.522;24.470;2022-12-07T05:52:04;0.10;;;0.10;;
57571;SDS011;44459;43.522;24.470;2022-12-07T05:54:30;0.10;;;0.10;;
57571;SDS011;44459;43.522;24.470;2022-12-07T05:56:56;2.55;;;2.45;;
57571;SDS011;44459;43.522;24.470;2022-12-07T05:59:22;0.05;;;0.05;;
57571;SDS011;44459;43.522;24.470;2022-12-07T06:01:51;0.55;;;0.55;;
57571;SDS011;44459;43.522;24.470;2022-12-07T06:04:31;0.30;;;0.30;;
57571;SDS011;44459;43.522;24.470;2022-12-07T06:06:58;0.20;;;0.20;;
57571;SDS011;44459;43.522;24.470;2022-12-07T06:09:24;0.10;;;0.10;;
57571;SDS011;44459;43.522;24.470;2022-12-07T06:11:50;5.50;;;1.55;;
57571;SDS011;44459;43.522;24.470;2022-12-07T06:14:35;2.42;;;2.33;;
57571;SDS011;44459;43.522;24.470;2022-12-07T06:17:00;0.32;;;0.32;;
57571;SDS011;44459;43.522;24.470;2022-12-07T06:19:26;0.10;;;0.10;;
57571;SDS011;44459;43.522;24.470;2022-12-07T06:21:51;0.10;;;0.10;;
57571;SDS011;44459;43.522;24.470;2022-12-07T06:24:17;0.00;;;0.00;;
57571;SDS011;44459;43.522;24.470;2022-12-07T06:26:43;0.55;;;0.55;;
57571;SDS011;44459;43.522;24.470;2022-12-07T06:29:10;0.90;;;0.90;;
57571;SDS011;44459;43.522;24.470;2022-12-07T06:31:36;0.00;;;0.00;;
57571;SDS011;44459;43.522;24.470;2022-12-07T06:34:06;0.00;;;0.00;;
57571;SDS011;44459;43.522;24.470;2022-12-07T06:36:34;0.10;;;0.10;;
57571;SDS011;44459;43.522;24.470;2022-12-07T06:38:59;2.08;;;1.98;;
57571;SDS011;44459;43.522;24.470;2022-12-07T06:41:25;0.35;;;0.35;;
57571;SDS011;44459;43.522;24.470;2022-12-07T06:43:50;0.10;;;0.10;;
57571;SDS011;44459;43.522;24.470;2022-12-07T06:46:16;1.15;;;1.05;;
57571;SDS011;44459;43.522;24.470;2022-12-07T06:48:42;4.50;;;4.00;;
57571;SDS011;44459;43.522;24.470;2022-12-07T06:51:08;2.17;;;1.85;;
57571;SDS011;44459;43.522;24.470;2022-12-07T06:53:34;0.10;;;0.10;;
57571;SDS011;44459;43.522;24.470;2022-12-07T06:55:59;2.25;;;2.05;;
57571;SDS011;44459;43.522;24.470;2022-12-07T06:58:25;0.17;;;0.17;;
57571;SDS011;44459;43.522;24.470;2022-12-07T07:00:51;0.43;;;0.43;;
57571;SDS011;44459;43.522;24.470;2022-12-07T07:03:16;0.10;;;0.10;;
57571;SDS011;44459;43.522;24.470;2022-12-07T07:05:42;0.28;;;0.28;;
57571;SDS011;44459;43.522;24.470;2022-12-07T07:08:08;0.88;;;0.88;;
57571;SDS011;44459;43.522;24.470;2022-12-07T07:10:34;1.65;;;1.55;;
57571;SDS011;44459;43.522;24.470;2022-12-07T07:13:00;1.90;;;1.80;;
57571;SDS011;44459;43.522;24.470;2022-12-07T07:15:25;5.13;;;1.42;;
57571;SDS011;44459;43.522;24.470;2022-12-07T07:17:51;2.58;;;2.05;;
57571;SDS011;44459;43.522;24.470;2022-12-07T07:20:16;0.10;;;0.10;;
57571;SDS011;44459;43.522;24.470;2022-12-07T07:22:42;0.13;;;0.13;;
57571;SDS011;44459;43.522;24.470;2022-12-07T07:25:07;1.10;;;1.10;;
57571;SDS011;44459;43.522;24.470;2022-12-07T07:27:33;1.55;;;1.45;;
57571;SDS011;44459;43.522;24.470;2022-12-07T07:29:58;0.40;;;0.40;;
57571;SDS011;44459;43.522;24.470;2022-12-07T07:32:24;0.08;;;0.08;;
57571;SDS011;44459;43.522;24.470;2022-12-07T07:34:49;0.55;;;0.55;;
57571;SDS011;44459;43.522;24.470;2022-12-07T07:37:15;0.10;;;0.10;;
57571;SDS011;44459;43.522;24.470;2022-12-07T07:39:40;0.13;;;0.13;;
57571;SDS011;44459;43.522;24.470;2022-12-07T07:42:06;0.20;;;0.20;;
57571;SDS011;44459;43.522;24.470;2022-12-07T07:44:32;2.05;;;1.92;;
57571;SDS011;44459;43.522;24.470;2022-12-07T07:46:58;0.10;;;0.10;;
57571;SDS011;44459;43.522;24.470;2022-12-07T07:49:24;0.10;;;0.10;;
57571;SDS011;44459;43.522;24.470;2022-12-07T07:51:50;0.10;;;0.10;;
57571;SDS011;44459;43.522;24.470;2022-12-07T07:54:15;1.35;;;1.35;;
57571;SDS011;44459;43.522;24.470;2022-12-07T07:56:41;2.47;;;2.38;;
57571;SDS011;44459;43.522;24.470;2022-12-07T07:59:06;0.08;;;0.08;;
57571;SDS011;44459;43.522;24.470;2022-12-07T08:01:31;1.48;;;1.38;;
57571;SDS011;44459;43.522;24.470;2022-12-07T08:03:57;1.13;;;1.13;;
57571;SDS011;44459;43.522;24.470;2022-12-07T08:06:22;0.90;;;0.90;;
57571;SDS011;44459;43.522;24.470;2022-12-07T08:08:48;1.88;;;1.77;;
57571;SDS011;44459;43.522;24.470;2022-12-07T08:11:13;3.40;;;2.20;;
57571;SDS011;44459;43.522;24.470;2022-12-07T08:13:38;0.20;;;0.20;;
57571;SDS011;44459;43.522;24.470;2022-12-07T08:16:05;1.55;;;1.45;;
57571;SDS011;44459;43.522;24.470;2022-12-07T08:18:35;2.70;;;1.92;;
57571;SDS011;44459;43.522;24.470;2022-12-07T08:21:02;0.80;;;0.80;;
57571;SDS011;44459;43.522;24.470;2022-12-07T08:23:28;0.85;;;0.63;;
57571;SDS011;44459;43.522;24.470;2022-12-07T08:25:54;0.10;;;0.10;;
57571;SDS011;44459;43.522;24.470;2022-12-07T08:28:20;2.53;;;1.10;;
57571;SDS011;44459;43.522;24.470;2022-12-07T08:30:46;1.77;;;1.15;;
57571;SDS011;44459;43.522;24.470;2022-12-07T08:33:11;1.83;;;1.73;;
57571;SDS011;44459;43.522;24.470;2022-12-07T08:35:37;8.13;;;2.35;;
57571;SDS011;44459;43.522;24.470;2022-12-07T08:38:03;1.83;;;1.73;;
57571;SDS011;44459;43.522;24.470;2022-12-07T08:40:29;4.57;;;3.63;;
57571;SDS011;44459;43.522;24.470;2022-12-07T08:42:55;5.82;;;4.20;;
57571;SDS011;44459;43.522;24.470;2022-12-07T08:45:20;0.30;;;0.30;;
57571;SDS011;44459;43.522;24.470;2022-12-07T08:48:09;0.47;;;0.45;;
57571;SDS011;44459;43.522;24.470;2022-12-07T08:50:35;1.20;;;1.20;;
57571;SDS011;44459;43.522;24.470;2022-12-07T08:53:02;4.57;;;3.38;;
57571;SDS011;44459;43.522;24.470;2022-12-07T08:55:29;5.82;;;3.45;;
57571;SDS011;44459;43.522;24.470;2022-12-07T08:57:56;3.75;;;3.47;;
57571;SDS011;44459;43.522;24.470;2022-12-07T09:00:23;3.00;;;2.30;;
57571;SDS011;44459;43.522;24.470;2022-12-07T09:02:49;2.03;;;1.73;;
57571;SDS011;44459;43.522;24.470;2022-12-07T09:05:14;1.02;;;0.98;;
57571;SDS011;44459;43.522;24.470;2022-12-07T09:07:40;5.32;;;2.85;;
57571;SDS011;44459;43.522;24.470;2022-12-07T09:10:07;1.08;;;1.00;;
57571;SDS011;44459;43.522;24.470;2022-12-07T09:12:33;0.65;;;0.65;;
57571;SDS011;44459;43.522;24.470;2022-12-07T09:14:58;5.32;;;3.60;;
57571;SDS011;44459;43.522;24.470;2022-12-07T09:17:25;5.38;;;4.03;;
57571;SDS011;44459;43.522;24.470;2022-12-07T09:19:51;4.72;;;2.88;;
57571;SDS011;44459;43.522;24.470;2022-12-07T09:22:17;4.50;;;3.13;;
57571;SDS011;44459;43.522;24.470;2022-12-07T09:24:42;9.52;;;5.13;;
57571;SDS011;44459;43.522;24.470;2022-12-07T09:27:09;0.80;;;0.80;;
57571;SDS011;44459;43.522;24.470;2022-12-07T09:29:34;17.15;;;7.63;;
57571;SDS011;44459;43.522;24.470;2022-12-07T09:32:00;2.60;;;2.40;;
57571;SDS011;44459;43.522;24.470;2022-12-07T09:34:25;0.10;;;0.10;;
57571;SDS011;44459;43.522;24.470;2022-12-07T09:36:51;0.10;;;0.10;;
57571;SDS011;44459;43.522;24.470;2022-12-07T09:39:17;3.45;;;1.25;;
57571;SDS011;44459;43.522;24.470;2022-12-07T09:41:43;0.10;;;0.10;;
57571;SDS011;44459;43.522;24.470;2022-12-07T09:44:14;2.83;;;2.63;;
57571;SDS011;44459;43.522;24.470;2022-12-07T09:46:48;8.50;;;4.55;;
57571;SDS011;44459;43.522;24.470;2022-12-07T09:49:25;8.63;;;4.95;;
57571;SDS011;44459;43.522;24.470;2022-12-07T09:52:17;6.82;;;3.92;;
57571;SDS011;44459;43.522;24.470;2022-12-07T09:54:44;8.63;;;4.00;;
57571;SDS011;44459;43.522;24.470;2022-12-07T09:57:13;11.18;;;7.05;;
57571;SDS011;44459;43.522;24.470;2022-12-07T09:59:39;1.85;;;0.82;;
57571;SDS011;44459;43.522;24.470;2022-12-07T10:04:51;4.88;;;3.55;;
57571;SDS011;44459;43.522;24.470;2022-12-07T10:07:17;2.25;;;1.80;;
57571;SDS011;44459;43.522;24.470;2022-12-07T10:09:44;5.95;;;2.17;;
57571;SDS011;44459;43.522;24.470;2022-12-07T10:12:10;3.30;;;2.00;;
57571;SDS011;44459;43.522;24.470;2022-12-07T10:14:38;4.40;;;2.63;;
57571;SDS011;44459;43.522;24.470;2022-12-07T10:17:48;1.95;;;1.60;;
57571;SDS011;44459;43.522;24.470;2022-12-07T10:20:38;8.40;;;5.00;;
57571;SDS011;44459;43.522;24.470;2022-12-07T10:23:00;1.10;;;1.05;;
57571;SDS011;44459;43.522;24.470;2022-12-07T10:25:34;0.80;;;0.50;;
57571;SDS011;44459;43.522;24.470;2022-12-07T10:30:33;2.50;;;2.25;;
57571;SDS011;44459;43.522;24.470;2022-12-07T10:35:53;3.28;;;2.95;;
57571;SDS011;44459;43.522;24.470;2022-12-07T10:38:19;10.27;;;5.70;;
57571;SDS011;44459;43.522;24.470;2022-12-07T10:40:44;3.67;;;2.47;;
57571;SDS011;44459;43.522;24.470;2022-12-07T10:45:42;22.45;;;3.00;;
57571;SDS011;44459;43.522;24.470;2022-12-07T11:00:11;8.52;;;5.38;;
57571;SDS011;44459;43.522;24.470;2022-12-07T11:02:46;8.23;;;4.22;;
57571;SDS011;44459;43.522;24.470;2022-12-07T11:10:55;12.93;;;5.65;;
57571;SDS011;44459;43.522;24.470;2022-12-07T11:18:29;3.25;;;1.90;;
57571;SDS011;44459;43.522;24.470;2022-12-07T11:21:39;7.50;;;4.10;;
57571;SDS011;44459;43.522;24.470;2022-12-07T11:37:35;15.10;;;6.18;;
57571;SDS011;44459;43.522;24.470;2022-12-07T11:40:12;10.27;;;3.65;;
57571;SDS011;44459;43.522;24.470;2022-12-07T11:43:01;10.88;;;6.00;;
57571;SDS011;44459;43.522;24.470;2022-12-07T11:45:34;8.52;;;4.65;;
57571;SDS011;44459;43.522;24.470;2022-12-07T11:48:09;3.40;;;2.80;;
57571;SDS011;44459;43.522;24.470;2022-12-07T11:50:42;14.15;;;7.18;;
57571;SDS011;44459;43.522;24.470;2022-12-07T11:56:23;11.15;;;5.55;;
57571;SDS011;44459;43.522;24.470;2022-12-07T11:58:59;22.05;;;8.48;;
57571;SDS011;44459;43.522;24.470;2022-12-07T12:06:34;12.20;;;5.80;;
57571;SDS011;44459;43.522;24.470;2022-12-07T12:17:17;6.45;;;5.55;;
57571;SDS011;44459;43.522;24.470;2022-12-07T12:25:27;12.43;;;6.45;;
57571;SDS011;44459;43.522;24.470;2022-12-07T12:27:55;2.88;;;2.17;;
57571;SDS011;44459;43.522;24.470;2022-12-07T12:33:04;4.13;;;3.72;;
57571;SDS011;44459;43.522;24.470;2022-12-07T12:35:35;6.78;;;5.20;;
57571;SDS011;44459;43.522;24.470;2022-12-07T12:40:58;8.75;;;4.72;;
57571;SDS011;44459;43.522;24.470;2022-12-07T12:43:44;6.30;;;3.90;;
57571;SDS011;44459;43.522;24.470;2022-12-07T12:51:43;1.90;;;1.42;;
57571;SDS011;44459;43.522;24.470;2022-12-07T12:54:20;6.20;;;3.75;;
57571;SDS011;44459;43.522;24.470;2022-12-07T12:59:25;4.60;;;2.67;;
57571;SDS011;44459;43.522;24.470;2022-12-07T13:01:55;7.07;;;3.67;;
57571;SDS011;44459;43.522;24.470;2022-12-07T13:04:48;8.88;;;3.95;;
57571;SDS011;44459;43.522;24.470;2022-12-07T13:12:56;10.52;;;4.88;;
57571;SDS011;44459;43.522;24.470;2022-12-07T13:28:22;8.73;;;4.60;;
57571;SDS011;44459;43.522;24.470;2022-12-07T13:33:36;7.20;;;2.17;;
57571;SDS011;44459;43.522;24.470;2022-12-07T13:36:02;13.30;;;4.60;;
57571;SDS011;44459;43.522;24.470;2022-12-07T13:38:29;4.57;;;2.30;;
57571;SDS011;44459;43.522;24.470;2022-12-07T13:43:43;8.95;;;3.88;;
57571;SDS011;44459;43.522;24.470;2022-12-07T13:46:20;19.73;;;6.03;;
57571;SDS011;44459;43.522;24.470;2022-12-07T13:48:52;1.90;;;1.13;;
57571;SDS011;44459;43.522;24.470;2022-12-07T13:53:46;4.57;;;3.35;;
57571;SDS011;44459;43.522;24.470;2022-12-07T13:56:20;7.65;;;2.50;;
57571;SDS011;44459;43.522;24.470;2022-12-07T13:58:47;4.72;;;3.13;;
57571;SDS011;44459;43.522;24.470;2022-12-07T14:01:13;7.88;;;4.95;;
57571;SDS011;44459;43.522;24.470;2022-12-07T14:03:39;0.50;;;0.50;;
57571;SDS011;44459;43.522;24.470;2022-12-07T14:08:33;8.88;;;4.80;;
57571;SDS011;44459;43.522;24.470;2022-12-07T14:10:58;8.35;;;4.53;;
57571;SDS011;44459;43.522;24.470;2022-12-07T14:16:01;1.30;;;1.10;;
57571;SDS011;44459;43.522;24.470;2022-12-07T14:18:47;19.85;;;8.10;;
57571;SDS011;44459;43.522;24.470;2022-12-07T14:23:38;7.50;;;4.65;;
57571;SDS011;44459;43.522;24.470;2022-12-07T14:26:06;6.22;;;4.00;;
57571;SDS011;44459;43.522;24.470;2022-12-07T14:28:40;4.38;;;2.63;;
57571;SDS011;44459;43.522;24.470;2022-12-07T14:31:13;3.20;;;2.33;;
57571;SDS011;44459;43.522;24.470;2022-12-07T14:33:40;3.22;;;3.00;;
57571;SDS011;44459;43.522;24.470;2022-12-07T14:36:10;2.28;;;2.08;;
57571;SDS011;44459;43.522;24.470;2022-12-07T14:38:39;2.42;;;1.55;;
57571;SDS011;44459;43.522;24.470;2022-12-07T14:41:14;5.72;;;5.38;;
57571;SDS011;44459;43.522;24.470;2022-12-07T14:44:07;3.47;;;3.28;;
57571;SDS011;44459;43.522;24.470;2022-12-07T14:46:36;12.52;;;2.72;;
57571;SDS011;44459;43.522;24.470;2022-12-07T14:49:01;2.50;;;2.30;;
57571;SDS011;44459;43.522;24.470;2022-12-07T14:51:27;4.75;;;3.72;;
57571;SDS011;44459;43.522;24.470;2022-12-07T14:53:52;1.00;;;0.93;;
57571;SDS011;44459;43.522;24.470;2022-12-07T14:56:18;1.77;;;1.67;;
57571;SDS011;44459;43.522;24.470;2022-12-07T14:58:43;1.67;;;1.58;;
57571;SDS011;44459;43.522;24.470;2022-12-07T15:01:09;0.08;;;0.08;;
57571;SDS011;44459;43.522;24.470;2022-12-07T15:03:34;4.53;;;4.22;;
57571;SDS011;44459;43.522;24.470;2022-12-07T15:06:00;11.77;;;7.78;;
57571;SDS011;44459;43.522;24.470;2022-12-07T15:08:26;30.33;;;20.10;;
57571;SDS011;44459;43.522;24.470;2022-12-07T15:10:51;24.40;;;22.23;;
57571;SDS011;44459;43.522;24.470;2022-12-07T15:13:17;14.40;;;8.07;;
57571;SDS011;44459;43.522;24.470;2022-12-07T15:16:01;26.63;;;11.63;;
57571;SDS011;44459;43.522;24.470;2022-12-07T15:18:27;12.00;;;5.93;;
57571;SDS011;44459;43.522;24.470;2022-12-07T15:20:52;5.13;;;4.18;;
57571;SDS011;44459;43.522;24.470;2022-12-07T15:23:17;6.07;;;4.68;;
57571;SDS011;44459;43.522;24.470;2022-12-07T15:25:44;0.73;;;0.73;;
57571;SDS011;44459;43.522;24.470;2022-12-07T15:28:10;0.75;;;0.73;;
57571;SDS011;44459;43.522;24.470;2022-12-07T15:30:37;0.93;;;0.93;;
57571;SDS011;44459;43.522;24.470;2022-12-07T15:33:03;3.35;;;2.97;;
57571;SDS011;44459;43.522;24.470;2022-12-07T15:35:29;5.63;;;2.00;;
57571;SDS011;44459;43.522;24.470;2022-12-07T15:37:54;1.17;;;1.10;;
57571;SDS011;44459;43.522;24.470;2022-12-07T15:40:20;3.50;;;3.25;;
57571;SDS011;44459;43.522;24.470;2022-12-07T15:42:45;2.53;;;2.20;;
57571;SDS011;44459;43.522;24.470;2022-12-07T15:45:11;2.28;;;2.13;;
57571;SDS011;44459;43.522;24.470;2022-12-07T15:47:41;1.33;;;1.33;;
57571;SDS011;44459;43.522;24.470;2022-12-07T15:50:11;0.50;;;0.47;;
57571;SDS011;44459;43.522;24.470;2022-12-07T15:52:38;4.10;;;0.65;;
57571;SDS011;44459;43.522;24.470;2022-12-07T15:55:04;14.57;;;4.72;;
57571;SDS011;44459;43.522;24.470;2022-12-07T15:57:30;4.65;;;3.05;;
57571;SDS011;44459;43.522;24.470;2022-12-07T15:59:56;9.40;;;5.45;;
57571;SDS011;44459;43.522;24.470;2022-12-07T16:02:22;23.70;;;9.23;;
57571;SDS011;44459;43.522;24.470;2022-12-07T16:04:48;10.82;;;3.42;;
57571;SDS011;44459;43.522;24.470;2022-12-07T16:07:15;10.23;;;5.13;;
57571;SDS011;44459;43.522;24.470;2022-12-07T16:09:41;14.10;;;6.22;;
57571;SDS011;44459;43.522;24.470;2022-12-07T16:12:07;24.85;;;12.80;;
57571;SDS011;44459;43.522;24.470;2022-12-07T16:14:33;3.35;;;2.95;;
57571;SDS011;44459;43.522;24.470;2022-12-07T16:16:59;2.13;;;1.35;;
57571;SDS011;44459;43.522;24.470;2022-12-07T16:19:24;0.85;;;0.77;;
57571;SDS011;44459;43.522;24.470;2022-12-07T16:21:50;13.35;;;7.05;;
57571;SDS011;44459;43.522;24.470;2022-12-07T16:24:15;1.30;;;1.27;;
57571;SDS011;44459;43.522;24.470;2022-12-07T16:26:41;5.00;;;3.90;;
57571;SDS011;44459;43.522;24.470;2022-12-07T16:29:09;2.67;;;2.45;;
57571;SDS011;44459;43.522;24.470;2022-12-07T16:31:36;15.80;;;8.02;;
57571;SDS011;44459;43.522;24.470;2022-12-07T16:34:01;1.30;;;0.98;;
57571;SDS011;44459;43.522;24.470;2022-12-07T16:36:27;10.52;;;4.72;;
57571;SDS011;44459;43.522;24.470;2022-12-07T16:38:52;5.93;;;3.47;;
57571;SDS011;44459;43.522;24.470;2022-12-07T16:41:18;17.55;;;11.30;;
57571;SDS011;44459;43.522;24.470;2022-12-07T16:43:44;6.03;;;4.15;;
57571;SDS011;44459;43.522;24.470;2022-12-07T16:46:10;3.13;;;2.78;;
57571;SDS011;44459;43.522;24.470;2022-12-07T16:48:39;4.78;;;2.65;;
57571;SDS011;44459;43.522;24.470;2022-12-07T16:51:05;11.88;;;6.40;;
57571;SDS011;44459;43.522;24.470;2022-12-07T16:53:33;13.05;;;6.85;;
57571;SDS011;44459;43.522;24.470;2022-12-07T16:56:00;14.88;;;8.27;;
57571;SDS011;44459;43.522;24.470;2022-12-07T16:58:25;13.00;;;7.35;;
57571;SDS011;44459;43.522;24.470;2022-12-07T17:00:51;15.23;;;8.82;;
57571;SDS011;44459;43.522;24.470;2022-12-07T17:03:17;1.55;;;1.08;;
57571;SDS011;44459;43.522;24.470;2022-12-07T17:05:43;18.42;;;7.82;;
57571;SDS011;44459;43.522;24.470;2022-12-07T17:08:10;31.55;;;12.85;;
57571;SDS011;44459;43.522;24.470;2022-12-07T17:10:38;4.75;;;4.10;;